• Join FlightAware (Why Join?)
  • Login
  • US Flag 
09:19AM EDT


 

Airport Tracker/Info


-or-


 

Live Flight TrackerFlight Track Log ✈ FIV606 ✈ 12-May-2013 ✈ KOKV - KMDW

Flight Track Log - Related Links

Times and Time Zones

All times are in EDT time to prevent confusion due to time zone crossing. See the FIV606 flight status page for this flight to view local times or setup timezone preferences in your user account.

Time Position Orientation Groundspeed Altitude Reporting Facility
EDT Latitude Longitude Course Direction KTS MPH feet Rate Location/Type
11:45AM 39.1500 -78.1833 214° Southwest 195 224 3,500  Level Potomac TRACON
11:45AM 39.1247 -78.2056 214° Southwest 223 257 3,900 1,500 Climbing Washington Center
11:46AM 39.0672 -78.1608 149° Southeast 227 261 5,700 2,520 Climbing Washington Center
11:47AM 39.0019 -78.1958 203° Southwest 233 268 9,100 2,100 Climbing Washington Center
11:48AM 38.9628 -78.2719 237° Southwest 228 262 10,000 1,260 Climbing Washington Center
11:49AM 38.9664 -78.3817 272° West 257 296 11,700 3,000 Climbing Washington Center
11:50AM 38.9700 -78.4992 272° West 291 335 16,000 4,260 Climbing Washington Center
11:51AM 38.9736 -78.6089 272° West 311 358 20,400 4,140 Climbing Washington Center
11:52AM 38.9769 -78.7211 272° West 317 365 24,300 3,360 Climbing Washington Center
11:53AM 38.9783 -78.8306 271° West 311 358 27,000 2,520 Climbing Washington Center
11:54AM 38.9836 -78.9431 273° West 311 358 29,400 1,440 Climbing Washington Center
11:55AM 38.9864 -79.0608 272° West 317 365 30,000 780 Climbing Washington Center
11:56AM 38.9889 -79.1864 272° West 335 386 31,000 1,020 Climbing Washington Center
11:57AM 38.9914 -79.3147 271° West 354 407 32,100 1,080 Climbing Washington Center
11:58AM 38.9936 -79.4378 271° West 354 407 33,200 1,080 Climbing Washington Center
11:59AM 38.9978 -79.5661 272° West 359 413 34,300 1,020 Climbing Washington Center
12:00PM 39.0000 -79.6864 271° West 376 433 35,300 1,020 Climbing Washington Center
12:01PM 39.0039 -79.8203 272° West 376 433 36,400 840 Climbing Washington Center
12:02PM 39.0053 -79.9539 271° West 376 433 37,000 720 Climbing Washington Center
12:03PM 39.0061 -80.1008 270° West 371 427 37,900 900 Climbing Washington Center
12:04PM 39.0058 -80.1550 270° West 373 429 38,400 900 Climbing Indianapolis Center
12:05PM 39.0083 -80.2844 271° West 365 420 39,300 780 Climbing Indianapolis Center
12:06PM 39.0131 -80.4147 273° West 365 420 40,000 300 Climbing Indianapolis Center
12:07PM 39.0675 -80.5378 300° West 396 456 40,000  Level Indianapolis Center
12:08PM 39.1228 -80.6647 299° West 405 466 40,000  Level Indianapolis Center
12:09PM 39.1897 -80.8136 300° West 402 463 40,000  Level Indianapolis Center
12:10PM 39.2433 -80.9381 299° West 399 459 40,000  Level Indianapolis Center
12:11PM 39.2986 -81.0633 300° West 401 461 40,000  Level Indianapolis Center
12:12PM 39.3528 -81.1886 299° West 402 463 40,000  Level Indianapolis Center
12:13PM 39.4069 -81.3136 299° West 400 460 40,000  Level Indianapolis Center
12:14PM 39.4617 -81.4392 299° West 401 461 40,000  Level Indianapolis Center
12:15PM 39.5156 -81.5644 299° West 401 461 40,000  Level Indianapolis Center
12:16PM 39.5794 -81.7164 299° West 402 463 40,000  Level Indianapolis Center
12:17PM 39.6342 -81.8422 299° West 401 461 40,000  Level Indianapolis Center
12:18PM 39.6872 -81.9694 298° West 402 463 40,000  Level Indianapolis Center
12:19PM 39.7369 -82.0881 299° West 400 460 40,000  Level Indianapolis Center
12:20PM 39.7917 -82.2164 299° West 403 464 40,000  Level Indianapolis Center
12:21PM 39.8453 -82.3444 299° West 401 461 40,000  Level Indianapolis Center
12:22PM 39.8989 -82.4733 298° West 402 463 40,000  Level Indianapolis Center
12:23PM 39.9617 -82.6239 299° West 402 463 40,000  Level Indianapolis Center
12:24PM 40.0133 -82.7511 298° West 397 457 40,000  Level Indianapolis Center
12:25PM 40.0669 -82.8794 299° West 399 459 40,000  Level Indianapolis Center
12:26PM 40.1194 -83.0061 298° West 397 457 40,000  Level Indianapolis Center
12:27PM 40.1714 -83.1358 298° West 401 461 40,000  Level Indianapolis Center
12:28PM 40.2239 -83.2656 298° West 402 463 40,000  Level Indianapolis Center
12:30PM 40.2767 -83.3961 298° West 404 465 40,000 -300 Level Indianapolis Center
12:31PM 40.3297 -83.5272 298° West 405 466 39,400 -900 Descending Indianapolis Center
12:32PM 40.3908 -83.6786 298° West 402 463 38,200 -1,080 Descending Indianapolis Center
12:33PM 40.4419 -83.8069 298° West 397 457 37,200 -1,020 Descending Indianapolis Center
12:34PM 40.4936 -83.9353 298° West 396 456 36,200 -1,020 Descending Indianapolis Center
12:35PM 40.5439 -84.0608 298° West 387 445 35,200 -1,320 Descending Indianapolis Center
12:36PM 40.5925 -84.1850 297° West 380 437 33,500 -1,560 Descending Indianapolis Center
12:37PM 40.6392 -84.3044 297° West 367 422 32,100 -1,380 Descending Indianapolis Center
12:37PM 40.6786 -84.4061 297° West 367 422 31,000 -1,200 Descending Chicago Center
12:39PM 40.7261 -84.5264 298° West 368 423 30,000 -540 Descending Chicago Center
12:40PM 40.7750 -84.6500 298° West 373 429 30,000  Level Chicago Center
12:41PM 40.8383 -84.7661 306° West 385 443 30,000  Level Chicago Center
12:42PM 40.9206 -84.8689 317° Northwest 403 464 30,000 -420 Level Chicago Center
12:43PM 41.0017 -84.9681 317° Northwest 401 461 29,200 -1,380 Descending Chicago Center
12:44PM 41.0917 -85.0806 317° Northwest 378 435 27,200 -1,980 Descending Chicago Center
12:45PM 41.1644 -85.1706 317° Northwest 362 417 25,200 -1,980 Descending Chicago Center
12:46PM 41.2347 -85.2581 317° Northwest 352 405 23,200 -2,040 Descending Chicago Center
12:47PM 41.2844 -85.3525 305° West 316 364 21,100 -2,040 Descending Chicago Center
12:48PM 41.3228 -85.4611 295° West 320 368 19,100 -1,860 Descending Chicago Center
12:49PM 41.3606 -85.5689 295° West 318 366 17,300 -1,260 Descending Chicago Center
12:50PM 41.3828 -85.6808 285° West 312 359 16,600 -780 Descending Chicago Center
12:51PM 41.4053 -85.7911 285° West 308 354 15,700 -900 Descending Chicago Center
12:52PM 41.4269 -85.9019 285° West 309 356 14,800 -960 Descending Chicago Center
12:53PM 41.4531 -86.0358 285° West 311 358 13,800 -960 Descending Chicago Center
12:54PM 41.4756 -86.1492 285° West 313 360 12,900 -900 Descending Chicago Center
12:55PM 41.4981 -86.2631 285° West 317 365 12,000 -900 Descending Chicago Center
12:56PM 41.5197 -86.3753 284° West 313 360 11,100 -900 Descending Chicago Center
12:57PM 41.5219 -86.4908 272° West 311 358 10,200 -540 Descending Chicago Center
12:58PM 41.5222 -86.6064 270° West 312 359 10,000 -120 Descending Chicago Center
12:59PM 41.5192 -86.7417 268° West 313 360 10,000  Level Chicago Center
01:00PM 41.5211 -86.8583 271° West 315 362 10,000 -540 Level Chicago Center
01:01PM 41.5192 -86.9503 268° West 258 297 8,900 -1,200 Descending Chicago Center
01:02PM 41.5189 -87.0444 270° West 252 290 7,600 -1,320 Descending Chicago Center
01:03PM 41.5267 -87.1361 276° West 251 289 6,200 -900 Descending Chicago Center
01:04PM 41.5500 -87.2333 288° West 248 285 5,800 -540 Descending Chicago TRACON
01:05PM 41.5667 -87.3167 285° West 246 283 5,300 -420 Descending Chicago TRACON
01:06PM 41.6000 -87.4000 298° West 247 284 5,000 -180 Descending Chicago TRACON
01:07PM 41.6167 -87.5000 283° West 246 283 5,000 -300 Level Chicago TRACON
01:08PM 41.6500 -87.5667 304° West 231 266 4,400 -960 Descending Chicago TRACON
01:09PM 41.7019 -87.6358 315° West 220 253 3,000 -1,140 Descending Chicago Center
01:10PM 41.7333 -87.6833 312° West 169 194 2,100 -900 Descending Chicago TRACON
01:11PM 41.7500 -87.7167 304° West 114 131 1,400 -780 Descending Chicago TRACON